CST,Max TemperatureF,Mean TemperatureF,Min TemperatureF,Max Dew PointF,MeanDew PointF,Min DewpointF,Max Humidity, Mean Humidity, Min Humidity, Max Sea Level PressureIn, Mean Sea Level PressureIn, Min Sea Level PressureIn, Max VisibilityMiles, Mean VisibilityMiles, Min VisibilityMiles, Max Wind SpeedMPH, Mean Wind SpeedMPH, Max Gust SpeedMPH,PrecipitationIn, CloudCover, Events, WindDirDegrees
2011-12-1,68,54,40,50,43,32,79,68,56,30.28,30.20,30.13,10,10,10,14,9,20,0.00,2,,137
2011-12-2,69,61,52,51,44,37,86,62,37,30.36,30.28,30.21,10,10,10,14,7,17,0.00,5,,127
2011-12-3,72,63,53,61,52,39,86,69,51,30.18,30.09,29.99,10,9,4,23,12,28,0.13,7,Rain,151
2011-12-4,54,49,43,52,47,42,100,95,89,30.16,30.10,30.04,10,6,2,15,9,18,1.51,8,Rain-Thunderstorm,3
2011-12-5,45,40,35,45,40,31,100,93,85,30.26,30.08,29.90,10,7,2,20,12,26,0.75,8,Rain-Thunderstorm,353
2011-12-6,36,33,30,31,28,23,89,79,69,30.33,30.28,30.24,10,9,6,17,10,22,0.00,8,,327
2011-12-7,44,36,28,26,22,20,85,62,39,30.44,30.35,30.31,10,10,8,15,5,22,0.00,2,,307
2011-12-8,51,39,27,29,26,23,85,62,38,30.37,30.27,30.19,10,10,10,14,7,17,0.00,0,,163
2011-12-9,57,46,34,40,35,28,82,66,50,30.45,30.31,30.20,10,10,9,12,4,14,0.00,5,,88
2011-12-10,56,46,35,37,34,32,92,67,41,30.57,30.50,30.45,10,8,2,12,4,14,0.00,0,,30
2011-12-11,53,43,33,33,27,21,85,57,28,30.49,30.40,30.31,10,10,7,13,6,16,0.00,1,,93
2011-12-12,57,50,43,37,30,24,57,46,35,30.36,30.30,30.24,10,10,10,14,7,16,0.00,7,,110
2011-12-13,67,58,49,56,48,32,84,69,54,30.40,30.26,30.18,10,10,8,18,10,24,0.00,7,,132
2011-12-14,71,66,60,64,60,55,93,81,68,30.16,30.04,29.96,10,10,7,22,13,28,T,8,Rain,161
2011-12-15,69,59,48,64,55,48,100,89,78,30.22,30.11,30.00,10,6,2,17,8,23,0.99,8,Rain-Thunderstorm,19
2011-12-16,52,46,39,48,45,38,100,90,80,30.43,30.32,30.18,10,8,2,16,8,23,0.34,7,Rain,9
2011-12-17,58,46,34,38,36,32,96,68,40,30.51,30.45,30.41,10,9,5,9,2,14,0.00,0,,356
2011-12-18,60,48,35,40,35,28,92,62,31,30.42,30.31,30.14,10,9,7,14,5,16,0.00,3,,161
2011-12-19,66,58,49,61,50,36,93,74,54,30.13,29.93,29.81,10,8,2,24,13,30,0.61,6,Rain-Thunderstorm,143
2011-12-20,54,48,41,51,42,35,100,75,50,30.01,29.93,29.86,10,10,10,14,7,20,0.01,3,Rain,239
2011-12-21,47,42,37,40,35,33,85,73,60,30.06,30.00,29.93,10,10,10,10,3,13,T,3,Rain,275
2011-12-22,57,51,45,50,46,41,100,89,77,30.21,30.03,29.92,10,8,3,18,3,22,0.43,7,Rain,268
2011-12-23,47,45,43,43,40,37,92,84,76,30.42,30.35,30.23,10,7,5,15,8,21,0.00,8,,359
2011-12-24,45,43,40,41,39,37,100,88,76,30.48,30.39,30.35,10,6,2,15,8,20,0.61,8,Rain,35
2011-12-25,45,43,40,45,43,40,100,97,93,30.41,30.36,30.29,10,4,2,13,6,16,0.16,8,Rain,3
2011-12-26,45,43,40,45,42,37,100,95,89,30.29,30.15,30.05,10,6,2,10,6,16,0.19,7,Rain,294
2011-12-27,56,46,35,37,34,32,92,68,43,30.22,30.17,30.10,10,10,10,13,6,17,0.00,0,,286
2011-12-28,58,45,32,38,35,30,96,70,43,30.20,30.12,30.04,10,10,10,20,6,24,0.00,0,,158
2011-12-29,63,50,37,49,43,36,100,78,56,30.06,29.99,29.88,10,5,0,14,5,16,0.00,2,Fog,181
2011-12-30,71,55,39,44,37,28,93,57,20,30.07,29.99,29.86,10,10,7,15,4,18,0.00,0,,82
2011-12-31,68,52,36,57,47,32,86,73,59,30.09,30.01,29.92,10,10,7,16,8,22,0.00,3,,181